sensor_id;sensor_type;location;lat;lon;timestamp;pressure;altitude;pressure_sealevel;temperature;humidity
804;BME280;25687;49.976;8.240;2022-10-24T00:01:21;99617.53;;;11.91;100.00
804;BME280;25687;49.976;8.240;2022-10-24T00:03:47;99617.13;;;11.72;100.00
804;BME280;25687;49.976;8.240;2022-10-24T00:06:14;99613.22;;;11.79;100.00
804;BME280;25687;49.976;8.240;2022-10-24T00:08:43;99612.59;;;11.75;100.00
804;BME280;25687;49.976;8.240;2022-10-24T00:11:10;99612.38;;;11.66;100.00
804;BME280;25687;49.976;8.240;2022-10-24T00:13:37;99609.75;;;11.67;100.00
804;BME280;25687;49.976;8.240;2022-10-24T00:16:02;99612.19;;;11.56;100.00
804;BME280;25687;49.976;8.240;2022-10-24T00:18:27;99612.81;;;11.46;100.00
804;BME280;25687;49.976;8.240;2022-10-24T00:20:52;99617.72;;;11.37;100.00
804;BME280;25687;49.976;8.240;2022-10-24T00:23:18;99609.91;;;11.38;100.00
804;BME280;25687;49.976;8.240;2022-10-24T00:25:43;99619.31;;;11.12;100.00
804;BME280;25687;49.976;8.240;2022-10-24T00:28:08;99615.97;;;11.24;100.00
804;BME280;25687;49.976;8.240;2022-10-24T00:30:34;99620.75;;;11.16;100.00
804;BME280;25687;49.976;8.240;2022-10-24T00:32:59;99626.66;;;11.18;100.00
804;BME280;25687;49.976;8.240;2022-10-24T00:35:24;99618.59;;;11.10;100.00
804;BME280;25687;49.976;8.240;2022-10-24T00:37:49;99621.91;;;11.12;100.00
804;BME280;25687;49.976;8.240;2022-10-24T00:40:17;99618.19;;;11.16;100.00
804;BME280;25687;49.976;8.240;2022-10-24T00:42:43;99624.19;;;11.17;100.00
804;BME280;25687;49.976;8.240;2022-10-24T00:45:41;99614.03;;;11.01;100.00
804;BME280;25687;49.976;8.240;2022-10-24T00:53:43;99604.00;;;11.10;100.00
804;BME280;25687;49.976;8.240;2022-10-24T00:56:10;99605.31;;;11.16;100.00
804;BME280;25687;49.976;8.240;2022-10-24T00:58:37;99607.91;;;11.16;100.00
804;BME280;25687;49.976;8.240;2022-10-24T01:01:03;99611.06;;;11.07;100.00
804;BME280;25687;49.976;8.240;2022-10-24T01:03:30;99608.50;;;11.07;100.00
804;BME280;25687;49.976;8.240;2022-10-24T01:06:13;99602.34;;;11.09;100.00
804;BME280;25687;49.976;8.240;2022-10-24T01:08:50;99611.50;;;11.13;100.00
804;BME280;25687;49.976;8.240;2022-10-24T01:14:24;99593.00;;;10.94;100.00
804;BME280;25687;49.976;8.240;2022-10-24T01:22:24;99583.91;;;11.03;100.00
804;BME280;25687;49.976;8.240;2022-10-24T01:25:13;99582.63;;;10.95;100.00
804;BME280;25687;49.976;8.240;2022-10-24T01:27:59;99582.03;;;11.05;100.00
804;BME280;25687;49.976;8.240;2022-10-24T01:30:28;99580.41;;;11.17;100.00
804;BME280;25687;49.976;8.240;2022-10-24T01:35:30;99592.91;;;11.23;100.00
804;BME280;25687;49.976;8.240;2022-10-24T01:41:04;99584.84;;;11.14;100.00
804;BME280;25687;49.976;8.240;2022-10-24T01:43:34;99573.22;;;11.22;100.00
804;BME280;25687;49.976;8.240;2022-10-24T01:46:07;99569.09;;;11.32;100.00
804;BME280;25687;49.976;8.240;2022-10-24T01:48:46;99567.56;;;11.29;100.00
804;BME280;25687;49.976;8.240;2022-10-24T01:51:14;99567.16;;;11.23;100.00
804;BME280;25687;49.976;8.240;2022-10-24T01:53:42;99563.72;;;11.22;100.00
804;BME280;25687;49.976;8.240;2022-10-24T01:56:09;99567.03;;;11.24;100.00
804;BME280;25687;49.976;8.240;2022-10-24T01:58:34;99569.50;;;11.26;100.00
804;BME280;25687;49.976;8.240;2022-10-24T02:01:04;99570.13;;;11.29;100.00
804;BME280;25687;49.976;8.240;2022-10-24T02:03:33;99567.78;;;11.26;100.00
804;BME280;25687;49.976;8.240;2022-10-24T02:06:07;99565.09;;;11.28;100.00
804;BME280;25687;49.976;8.240;2022-10-24T02:08:39;99567.66;;;11.28;100.00
804;BME280;25687;49.976;8.240;2022-10-24T02:11:07;99574.53;;;11.27;100.00
804;BME280;25687;49.976;8.240;2022-10-24T02:13:49;99570.97;;;11.30;100.00
804;BME280;25687;49.976;8.240;2022-10-24T02:16:18;99570.03;;;11.31;100.00
804;BME280;25687;49.976;8.240;2022-10-24T02:18:46;99571.16;;;11.27;100.00
804;BME280;25687;49.976;8.240;2022-10-24T02:21:21;99571.34;;;11.11;100.00
804;BME280;25687;49.976;8.240;2022-10-24T02:26:30;99578.19;;;10.97;100.00
804;BME280;25687;49.976;8.240;2022-10-24T02:29:00;99564.81;;;10.92;100.00
804;BME280;25687;49.976;8.240;2022-10-24T02:31:32;99556.38;;;10.90;100.00
804;BME280;25687;49.976;8.240;2022-10-24T02:33:59;99556.81;;;11.10;100.00
804;BME280;25687;49.976;8.240;2022-10-24T02:36:27;99544.50;;;11.15;100.00
804;BME280;25687;49.976;8.240;2022-10-24T02:38:54;99550.41;;;10.90;100.00
804;BME280;25687;49.976;8.240;2022-10-24T02:41:40;99567.16;;;10.82;100.00
804;BME280;25687;49.976;8.240;2022-10-24T02:44:07;99566.94;;;11.13;100.00
804;BME280;25687;49.976;8.240;2022-10-24T02:46:34;99563.72;;;11.09;100.00
804;BME280;25687;49.976;8.240;2022-10-24T02:49:01;99571.25;;;11.25;100.00
804;BME280;25687;49.976;8.240;2022-10-24T02:51:30;99557.88;;;11.33;100.00
804;BME280;25687;49.976;8.240;2022-10-24T02:53:57;99559.03;;;11.29;100.00
804;BME280;25687;49.976;8.240;2022-10-24T02:56:23;99554.47;;;11.20;100.00
804;BME280;25687;49.976;8.240;2022-10-24T02:58:48;99558.91;;;11.18;100.00
804;BME280;25687;49.976;8.240;2022-10-24T03:01:14;99554.16;;;11.24;100.00
804;BME280;25687;49.976;8.240;2022-10-24T03:03:39;99549.59;;;11.02;100.00
804;BME280;25687;49.976;8.240;2022-10-24T03:06:04;99540.66;;;11.08;100.00
804;BME280;25687;49.976;8.240;2022-10-24T03:08:30;99529.94;;;11.01;100.00
804;BME280;25687;49.976;8.240;2022-10-24T03:10:55;99542.31;;;11.09;100.00
804;BME280;25687;49.976;8.240;2022-10-24T03:13:20;99548.16;;;11.11;100.00
804;BME280;25687;49.976;8.240;2022-10-24T03:15:46;99552.41;;;11.12;100.00
804;BME280;25687;49.976;8.240;2022-10-24T03:18:11;99555.19;;;11.09;100.00
804;BME280;25687;49.976;8.240;2022-10-24T03:20:36;99554.16;;;11.11;100.00
804;BME280;25687;49.976;8.240;2022-10-24T03:23:02;99563.22;;;11.17;100.00
804;BME280;25687;49.976;8.240;2022-10-24T03:25:28;99559.53;;;11.21;100.00
804;BME280;25687;49.976;8.240;2022-10-24T03:27:53;99563.72;;;11.22;100.00
804;BME280;25687;49.976;8.240;2022-10-24T03:30:19;99564.94;;;11.04;100.00
804;BME280;25687;49.976;8.240;2022-10-24T03:32:44;99566.72;;;11.16;100.00
804;BME280;25687;49.976;8.240;2022-10-24T03:35:09;99565.09;;;11.15;100.00
804;BME280;25687;49.976;8.240;2022-10-24T03:37:35;99568.88;;;11.09;100.00
804;BME280;25687;49.976;8.240;2022-10-24T03:40:00;99583.91;;;11.03;100.00
804;BME280;25687;49.976;8.240;2022-10-24T03:42:26;99581.91;;;11.06;100.00
804;BME280;25687;49.976;8.240;2022-10-24T03:44:51;99579.28;;;11.08;100.00
804;BME280;25687;49.976;8.240;2022-10-24T03:47:16;99582.13;;;10.90;100.00
804;BME280;25687;49.976;8.240;2022-10-24T03:49:42;99570.69;;;10.94;100.00
804;BME280;25687;49.976;8.240;2022-10-24T03:52:07;99574.28;;;10.92;100.00
804;BME280;25687;49.976;8.240;2022-10-24T03:54:33;99583.22;;;10.86;100.00
804;BME280;25687;49.976;8.240;2022-10-24T03:56:59;99572.94;;;10.86;100.00
804;BME280;25687;49.976;8.240;2022-10-24T03:59:25;99563.25;;;10.77;100.00
804;BME280;25687;49.976;8.240;2022-10-24T04:01:50;99567.38;;;10.92;100.00
804;BME280;25687;49.976;8.240;2022-10-24T04:04:16;99567.72;;;11.01;100.00
804;BME280;25687;49.976;8.240;2022-10-24T04:06:41;99556.50;;;11.02;100.00
804;BME280;25687;49.976;8.240;2022-10-24T04:09:06;99557.38;;;11.15;100.00
804;BME280;25687;49.976;8.240;2022-10-24T04:11:32;99564.13;;;11.03;100.00
804;BME280;25687;49.976;8.240;2022-10-24T04:13:57;99561.84;;;10.98;100.00
804;BME280;25687;49.976;8.240;2022-10-24T04:16:24;99546.50;;;11.10;100.00
804;BME280;25687;49.976;8.240;2022-10-24T04:18:50;99557.97;;;11.19;100.00
804;BME280;25687;49.976;8.240;2022-10-24T04:21:15;99561.78;;;11.13;100.00
804;BME280;25687;49.976;8.240;2022-10-24T04:23:40;99559.59;;;11.07;100.00
804;BME280;25687;49.976;8.240;2022-10-24T04:26:09;99566.69;;;11.03;100.00
804;BME280;25687;49.976;8.240;2022-10-24T04:28:35;99564.84;;;11.05;100.00
804;BME280;25687;49.976;8.240;2022-10-24T04:31:00;99560.34;;;11.09;100.00
804;BME280;25687;49.976;8.240;2022-10-24T04:33:25;99560.81;;;11.01;100.00
804;BME280;25687;49.976;8.240;2022-10-24T04:35:51;99572.47;;;11.07;100.00
804;BME280;25687;49.976;8.240;2022-10-24T04:38:17;99575.44;;;11.01;100.00
804;BME280;25687;49.976;8.240;2022-10-24T04:40:51;99565.56;;;11.07;100.00
804;BME280;25687;49.976;8.240;2022-10-24T04:43:17;99564.88;;;11.18;100.00
804;BME280;25687;49.976;8.240;2022-10-24T04:45:42;99552.06;;;11.04;100.00
804;BME280;25687;49.976;8.240;2022-10-24T04:48:08;99542.78;;;11.01;100.00
804;BME280;25687;49.976;8.240;2022-10-24T04:50:33;99549.09;;;11.10;100.00
804;BME280;25687;49.976;8.240;2022-10-24T04:52:58;99549.81;;;11.12;100.00
804;BME280;25687;49.976;8.240;2022-10-24T04:55:25;99560.75;;;11.16;100.00
804;BME280;25687;49.976;8.240;2022-10-24T04:57:51;99566.72;;;11.16;100.00
804;BME280;25687;49.976;8.240;2022-10-24T05:00:16;99578.03;;;11.13;100.00
804;BME280;25687;49.976;8.240;2022-10-24T05:02:42;99575.22;;;11.04;100.00
804;BME280;25687;49.976;8.240;2022-10-24T05:05:07;99581.38;;;10.88;100.00
804;BME280;25687;49.976;8.240;2022-10-24T05:07:32;99581.88;;;10.80;100.00
804;BME280;25687;49.976;8.240;2022-10-24T05:09:58;99567.25;;;10.81;100.00
804;BME280;25687;49.976;8.240;2022-10-24T05:12:23;99565.72;;;10.91;100.00
804;BME280;25687;49.976;8.240;2022-10-24T05:14:48;99567.88;;;10.85;100.00
804;BME280;25687;49.976;8.240;2022-10-24T05:17:14;99573.25;;;10.94;100.00
804;BME280;25687;49.976;8.240;2022-10-24T05:19:39;99568.47;;;10.75;100.00
804;BME280;25687;49.976;8.240;2022-10-24T05:22:04;99571.72;;;10.64;100.00
804;BME280;25687;49.976;8.240;2022-10-24T05:24:30;99573.53;;;10.77;100.00
804;BME280;25687;49.976;8.240;2022-10-24T05:26:55;99573.56;;;10.62;100.00
804;BME280;25687;49.976;8.240;2022-10-24T05:29:20;99577.31;;;10.71;100.00
804;BME280;25687;49.976;8.240;2022-10-24T05:31:46;99582.28;;;10.74;100.00
804;BME280;25687;49.976;8.240;2022-10-24T05:34:11;99581.72;;;10.69;100.00
804;BME280;25687;49.976;8.240;2022-10-24T05:36:36;99575.59;;;10.57;100.00
804;BME280;25687;49.976;8.240;2022-10-24T05:39:02;99588.09;;;10.63;100.00
804;BME280;25687;49.976;8.240;2022-10-24T05:41:27;99579.00;;;10.58;100.00
804;BME280;25687;49.976;8.240;2022-10-24T05:43:52;99582.50;;;10.57;100.00
804;BME280;25687;49.976;8.240;2022-10-24T05:46:18;99583.06;;;10.47;100.00
804;BME280;25687;49.976;8.240;2022-10-24T05:48:43;99579.94;;;10.57;100.00
804;BME280;25687;49.976;8.240;2022-10-24T05:51:08;99580.78;;;10.43;100.00
804;BME280;25687;49.976;8.240;2022-10-24T05:53:33;99578.34;;;10.54;100.00
804;BME280;25687;49.976;8.240;2022-10-24T05:55:59;99577.16;;;10.60;100.00
804;BME280;25687;49.976;8.240;2022-10-24T05:58:24;99581.91;;;10.39;100.00
804;BME280;25687;49.976;8.240;2022-10-24T06:00:50;99592.34;;;10.50;100.00
804;BME280;25687;49.976;8.240;2022-10-24T06:03:15;99594.09;;;10.49;100.00
804;BME280;25687;49.976;8.240;2022-10-24T06:05:41;99586.13;;;10.40;100.00
804;BME280;25687;49.976;8.240;2022-10-24T06:08:07;99596.34;;;10.54;100.00
804;BME280;25687;49.976;8.240;2022-10-24T06:10:33;99595.53;;;10.54;100.00
804;BME280;25687;49.976;8.240;2022-10-24T06:12:58;99599.38;;;10.61;100.00
804;BME280;25687;49.976;8.240;2022-10-24T06:15:23;99596.94;;;10.59;100.00
804;BME280;25687;49.976;8.240;2022-10-24T06:17:49;99594.69;;;10.68;100.00
804;BME280;25687;49.976;8.240;2022-10-24T06:20:15;99592.84;;;10.70;100.00
804;BME280;25687;49.976;8.240;2022-10-24T06:22:40;99602.91;;;10.73;100.00
804;BME280;25687;49.976;8.240;2022-10-24T06:25:06;99607.53;;;10.68;100.00
804;BME280;25687;49.976;8.240;2022-10-24T06:27:31;99606.75;;;10.80;100.00
804;BME280;25687;49.976;8.240;2022-10-24T06:29:57;99604.47;;;10.75;100.00
804;BME280;25687;49.976;8.240;2022-10-24T06:32:22;99605.75;;;10.82;100.00
804;BME280;25687;49.976;8.240;2022-10-24T06:34:49;99601.47;;;10.69;100.00
804;BME280;25687;49.976;8.240;2022-10-24T06:37:14;99599.50;;;10.87;100.00
804;BME280;25687;49.976;8.240;2022-10-24T06:39:40;99597.72;;;10.87;100.00
804;BME280;25687;49.976;8.240;2022-10-24T06:42:05;99598.75;;;10.85;100.00
804;BME280;25687;49.976;8.240;2022-10-24T06:44:30;99600.84;;;10.92;100.00
804;BME280;25687;49.976;8.240;2022-10-24T06:46:56;99595.66;;;10.79;100.00
804;BME280;25687;49.976;8.240;2022-10-24T06:49:21;99605.81;;;10.95;100.00
804;BME280;25687;49.976;8.240;2022-10-24T06:51:46;99600.38;;;11.13;100.00
804;BME280;25687;49.976;8.240;2022-10-24T06:54:12;99613.53;;;11.08;100.00
804;BME280;25687;49.976;8.240;2022-10-24T06:56:37;99609.25;;;11.09;100.00
804;BME280;25687;49.976;8.240;2022-10-24T06:59:07;99607.31;;;11.25;100.00
804;BME280;25687;49.976;8.240;2022-10-24T07:01:33;99599.78;;;11.22;100.00
804;BME280;25687;49.976;8.240;2022-10-24T07:03:59;99599.50;;;11.40;100.00
804;BME280;25687;49.976;8.240;2022-10-24T07:06:27;99598.56;;;11.15;100.00
804;BME280;25687;49.976;8.240;2022-10-24T07:08:55;99593.94;;;11.46;100.00
804;BME280;25687;49.976;8.240;2022-10-24T07:11:21;99597.47;;;11.45;100.00
804;BME280;25687;49.976;8.240;2022-10-24T07:13:46;99602.81;;;11.68;100.00
804;BME280;25687;49.976;8.240;2022-10-24T07:16:12;99607.13;;;11.93;100.00
804;BME280;25687;49.976;8.240;2022-10-24T07:18:37;99603.41;;;11.84;100.00
804;BME280;25687;49.976;8.240;2022-10-24T07:21:05;99605.81;;;11.61;100.00
804;BME280;25687;49.976;8.240;2022-10-24T07:23:31;99602.00;;;11.80;100.00
804;BME280;25687;49.976;8.240;2022-10-24T07:26:11;99599.09;;;11.72;100.00
804;BME280;25687;49.976;8.240;2022-10-24T07:28:38;99593.44;;;12.05;100.00
804;BME280;25687;49.976;8.240;2022-10-24T07:31:04;99602.91;;;12.18;100.00
804;BME280;25687;49.976;8.240;2022-10-24T07:33:30;99602.66;;;12.34;100.00
804;BME280;25687;49.976;8.240;2022-10-24T07:35:56;99615.34;;;12.37;100.00
804;BME280;25687;49.976;8.240;2022-10-24T07:38:21;99611.19;;;12.47;100.00
804;BME280;25687;49.976;8.240;2022-10-24T07:40:47;99609.16;;;12.64;100.00
804;BME280;25687;49.976;8.240;2022-10-24T07:43:13;99615.84;;;12.66;100.00
804;BME280;25687;49.976;8.240;2022-10-24T07:45:38;99613.56;;;12.74;100.00
804;BME280;25687;49.976;8.240;2022-10-24T07:48:04;99609.66;;;12.69;100.00
804;BME280;25687;49.976;8.240;2022-10-24T07:50:32;99625.53;;;12.75;100.00
804;BME280;25687;49.976;8.240;2022-10-24T07:52:58;99619.81;;;13.07;100.00
804;BME280;25687;49.976;8.240;2022-10-24T07:55:23;99628.22;;;12.98;100.00
804;BME280;25687;49.976;8.240;2022-10-24T07:57:48;99630.25;;;13.06;100.00
804;BME280;25687;49.976;8.240;2022-10-24T08:00:14;99630.75;;;12.87;100.00
804;BME280;25687;49.976;8.240;2022-10-24T08:02:40;99634.81;;;12.78;100.00
804;BME280;25687;49.976;8.240;2022-10-24T08:05:05;99631.00;;;12.84;100.00
804;BME280;25687;49.976;8.240;2022-10-24T08:07:34;99634.84;;;13.02;100.00
804;BME280;25687;49.976;8.240;2022-10-24T08:09:59;99632.69;;;12.96;100.00
804;BME280;25687;49.976;8.240;2022-10-24T08:12:25;99627.66;;;13.06;100.00
804;BME280;25687;49.976;8.240;2022-10-24T08:14:50;99611.84;;;13.11;100.00
804;BME280;25687;49.976;8.240;2022-10-24T08:17:17;99615.78;;;13.28;100.00
804;BME280;25687;49.976;8.240;2022-10-24T08:19:44;99602.34;;;13.47;100.00
804;BME280;25687;49.976;8.240;2022-10-24T08:22:11;99607.56;;;13.69;100.00
804;BME280;25687;49.976;8.240;2022-10-24T08:24:36;99608.38;;;13.93;100.00
804;BME280;25687;49.976;8.240;2022-10-24T08:27:01;99608.16;;;13.96;100.00
804;BME280;25687;49.976;8.240;2022-10-24T08:29:27;99600.06;;;14.12;100.00
804;BME280;25687;49.976;8.240;2022-10-24T08:31:54;99597.22;;;14.15;100.00
804;BME280;25687;49.976;8.240;2022-10-24T08:34:20;99603.63;;;14.55;100.00
804;BME280;25687;49.976;8.240;2022-10-24T08:36:49;99593.97;;;14.57;100.00
804;BME280;25687;49.976;8.240;2022-10-24T08:39:15;99598.66;;;14.63;100.00
804;BME280;25687;49.976;8.240;2022-10-24T08:41:50;99585.31;;;14.46;100.00
804;BME280;25687;49.976;8.240;2022-10-24T08:44:27;99601.84;;;14.66;100.00
804;BME280;25687;49.976;8.240;2022-10-24T08:46:57;99588.81;;;14.45;100.00
804;BME280;25687;49.976;8.240;2022-10-24T08:52:29;99590.56;;;14.67;100.00
804;BME280;25687;49.976;8.240;2022-10-24T08:55:03;99599.09;;;15.33;100.00
804;BME280;25687;49.976;8.240;2022-10-24T08:57:33;99588.09;;;15.62;100.00
804;BME280;25687;49.976;8.240;2022-10-24T09:00:07;99584.06;;;16.10;100.00
804;BME280;25687;49.976;8.240;2022-10-24T09:02:37;99585.06;;;16.19;100.00
804;BME280;25687;49.976;8.240;2022-10-24T09:05:21;99602.22;;;16.10;100.00
804;BME280;25687;49.976;8.240;2022-10-24T09:07:51;99591.25;;;16.47;100.00
804;BME280;25687;49.976;8.240;2022-10-24T09:10:23;99589.88;;;17.41;100.00
804;BME280;25687;49.976;8.240;2022-10-24T09:12:51;99585.50;;;18.17;100.00
804;BME280;25687;49.976;8.240;2022-10-24T09:15:26;99584.25;;;19.29;100.00
804;BME280;25687;49.976;8.240;2022-10-24T09:17:53;99574.59;;;19.82;100.00
804;BME280;25687;49.976;8.240;2022-10-24T09:22:50;99567.97;;;22.58;100.00
804;BME280;25687;49.976;8.240;2022-10-24T09:25:22;99585.53;;;23.48;100.00
804;BME280;25687;49.976;8.240;2022-10-24T09:27:48;99573.59;;;24.49;95.31
804;BME280;25687;49.976;8.240;2022-10-24T09:30:23;99588.94;;;23.79;95.82
804;BME280;25687;49.976;8.240;2022-10-24T09:32:50;99586.31;;;22.96;100.00
804;BME280;25687;49.976;8.240;2022-10-24T09:35:22;99590.94;;;24.43;98.68
804;BME280;25687;49.976;8.240;2022-10-24T09:38:22;99591.09;;;25.64;92.17
804;BME280;25687;49.976;8.240;2022-10-24T09:40:36;99606.03;;;27.47;78.53
804;BME280;25687;49.976;8.240;2022-10-24T09:43:24;99604.34;;;25.84;80.75
804;BME280;25687;49.976;8.240;2022-10-24T09:51:23;99598.56;;;20.80;100.00
804;BME280;25687;49.976;8.240;2022-10-24T09:54:00;99597.44;;;20.74;100.00
804;BME280;25687;49.976;8.240;2022-10-24T09:56:41;99605.88;;;20.52;100.00
804;BME280;25687;49.976;8.240;2022-10-24T10:02:30;99605.75;;;20.78;100.00
804;BME280;25687;49.976;8.240;2022-10-24T10:09:57;99616.09;;;21.93;100.00
804;BME280;25687;49.976;8.240;2022-10-24T10:12:32;99617.81;;;21.45;98.18
804;BME280;25687;49.976;8.240;2022-10-24T10:15:17;99621.41;;;21.60;100.00
804;BME280;25687;49.976;8.240;2022-10-24T10:17:56;99612.63;;;20.79;96.40
804;BME280;25687;49.976;8.240;2022-10-24T10:20:29;99619.91;;;20.51;99.84
804;BME280;25687;49.976;8.240;2022-10-24T10:23:14;99621.81;;;19.89;100.00
804;BME280;25687;49.976;8.240;2022-10-24T10:25:40;99622.19;;;19.76;100.00
804;BME280;25687;49.976;8.240;2022-10-24T10:28:18;99630.53;;;19.80;100.00
804;BME280;25687;49.976;8.240;2022-10-24T10:30:53;99620.66;;;19.83;100.00
804;BME280;25687;49.976;8.240;2022-10-24T10:33:28;99632.22;;;20.24;100.00
804;BME280;25687;49.976;8.240;2022-10-24T10:36:06;99645.06;;;20.52;100.00
804;BME280;25687;49.976;8.240;2022-10-24T10:38:47;99624.84;;;20.70;97.68
804;BME280;25687;49.976;8.240;2022-10-24T10:41:38;99623.19;;;20.69;93.76
804;BME280;25687;49.976;8.240;2022-10-24T10:44:23;99629.78;;;20.82;90.23
804;BME280;25687;49.976;8.240;2022-10-24T10:47:01;99634.50;;;20.86;91.46
804;BME280;25687;49.976;8.240;2022-10-24T10:49:38;99628.78;;;20.74;91.05
804;BME280;25687;49.976;8.240;2022-10-24T10:52:23;99638.50;;;20.47;95.31
804;BME280;25687;49.976;8.240;2022-10-24T10:55:16;99641.44;;;20.02;95.31
804;BME280;25687;49.976;8.240;2022-10-24T11:00:43;99656.13;;;20.03;94.82
804;BME280;25687;49.976;8.240;2022-10-24T11:06:14;99642.50;;;20.25;93.80
804;BME280;25687;49.976;8.240;2022-10-24T11:11:30;99645.69;;;20.03;95.55
804;BME280;25687;49.976;8.240;2022-10-24T11:16:37;99640.69;;;20.18;95.34
804;BME280;25687;49.976;8.240;2022-10-24T11:19:27;99642.63;;;20.15;92.40
804;BME280;25687;49.976;8.240;2022-10-24T11:21:55;99651.38;;;20.49;90.60
804;BME280;25687;49.976;8.240;2022-10-24T11:24:22;99659.31;;;20.74;89.34
804;BME280;25687;49.976;8.240;2022-10-24T11:26:59;99648.09;;;20.98;87.03
804;BME280;25687;49.976;8.240;2022-10-24T11:29:35;99653.81;;;21.26;87.92
804;BME280;25687;49.976;8.240;2022-10-24T11:32:14;99651.16;;;21.43;83.51
804;BME280;25687;49.976;8.240;2022-10-24T11:35:06;99652.84;;;21.27;84.07
804;BME280;25687;49.976;8.240;2022-10-24T11:37:40;99652.63;;;21.54;81.00
804;BME280;25687;49.976;8.240;2022-10-24T11:40:13;99642.34;;;21.60;83.07
804;BME280;25687;49.976;8.240;2022-10-24T11:45:23;99636.47;;;21.25;78.47
804;BME280;25687;49.976;8.240;2022-10-24T11:47:58;99634.34;;;21.04;81.90
804;BME280;25687;49.976;8.240;2022-10-24T11:50:33;99637.47;;;20.91;81.53
804;BME280;25687;49.976;8.240;2022-10-24T11:56:37;99641.00;;;20.66;88.97
804;BME280;25687;49.976;8.240;2022-10-24T12:01:32;99651.75;;;20.11;90.46
804;BME280;25687;49.976;8.240;2022-10-24T12:07:16;99640.22;;;19.61;91.45
804;BME280;25687;49.976;8.240;2022-10-24T12:12:49;99641.47;;;19.57;91.52
804;BME280;25687;49.976;8.240;2022-10-24T12:18:25;99644.50;;;19.71;90.34
804;BME280;25687;49.976;8.240;2022-10-24T12:20:53;99655.09;;;19.87;90.95
804;BME280;25687;49.976;8.240;2022-10-24T12:23:25;99646.00;;;19.99;84.39
804;BME280;25687;49.976;8.240;2022-10-24T12:28:39;99648.41;;;19.93;82.22
804;BME280;25687;49.976;8.240;2022-10-24T12:31:18;99632.44;;;19.96;81.84
804;BME280;25687;49.976;8.240;2022-10-24T12:33:46;99632.59;;;19.94;79.80
804;BME280;25687;49.976;8.240;2022-10-24T12:36:11;99638.75;;;19.85;79.19
804;BME280;25687;49.976;8.240;2022-10-24T12:46:55;99625.78;;;20.02;82.58
804;BME280;25687;49.976;8.240;2022-10-24T12:51:51;99623.59;;;20.23;79.05
804;BME280;25687;49.976;8.240;2022-10-24T12:54:17;99621.97;;;20.30;77.37
804;BME280;25687;49.976;8.240;2022-10-24T12:59:28;99617.91;;;19.93;79.56
804;BME280;25687;49.976;8.240;2022-10-24T13:17:02;99620.91;;;19.80;77.82
804;BME280;25687;49.976;8.240;2022-10-24T13:19:32;99618.69;;;19.86;77.52
804;BME280;25687;49.976;8.240;2022-10-24T13:21:58;99617.88;;;19.85;77.17
804;BME280;25687;49.976;8.240;2022-10-24T13:24:30;99633.38;;;19.87;76.59
804;BME280;25687;49.976;8.240;2022-10-24T13:35:23;99629.22;;;20.10;76.94
804;BME280;25687;49.976;8.240;2022-10-24T13:37:50;99620.09;;;20.06;78.83
804;BME280;25687;49.976;8.240;2022-10-24T13:40:31;99633.38;;;19.87;83.85
804;BME280;25687;49.976;8.240;2022-10-24T13:43:03;99639.44;;;19.87;83.35
804;BME280;25687;49.976;8.240;2022-10-24T13:45:41;99634.44;;;20.10;84.49
804;BME280;25687;49.976;8.240;2022-10-24T13:48:24;99630.56;;;20.23;84.18
804;BME280;25687;49.976;8.240;2022-10-24T13:51:16;99639.59;;;20.28;84.93
804;BME280;25687;49.976;8.240;2022-10-24T13:53:58;99635.72;;;20.41;82.71
804;BME280;25687;49.976;8.240;2022-10-24T13:56:26;99632.47;;;20.47;80.30
804;BME280;25687;49.976;8.240;2022-10-24T13:58:52;99637.09;;;20.19;81.03
804;BME280;25687;49.976;8.240;2022-10-24T14:01:23;99629.81;;;20.30;82.35
804;BME280;25687;49.976;8.240;2022-10-24T14:03:51;99643.25;;;20.01;86.59
804;BME280;25687;49.976;8.240;2022-10-24T14:06:26;99639.00;;;19.82;84.38
804;BME280;25687;49.976;8.240;2022-10-24T14:08:54;99637.34;;;19.73;83.87
804;BME280;25687;49.976;8.240;2022-10-24T14:11:25;99643.69;;;19.70;85.18
804;BME280;25687;49.976;8.240;2022-10-24T14:13:54;99654.47;;;19.75;84.78
804;BME280;25687;49.976;8.240;2022-10-24T14:16:28;99653.56;;;19.84;84.13
804;BME280;25687;49.976;8.240;2022-10-24T14:19:25;99645.63;;;19.68;85.79
804;BME280;25687;49.976;8.240;2022-10-24T14:21:50;99638.22;;;19.81;86.34
804;BME280;25687;49.976;8.240;2022-10-24T14:24:19;99645.28;;;19.89;87.43
804;BME280;25687;49.976;8.240;2022-10-24T14:26:46;99645.69;;;19.76;86.53
804;BME280;25687;49.976;8.240;2022-10-24T14:29:27;99643.34;;;19.91;82.55
804;BME280;25687;49.976;8.240;2022-10-24T14:32:01;99649.59;;;19.98;84.96
804;BME280;25687;49.976;8.240;2022-10-24T14:34:27;99654.25;;;19.87;88.12
804;BME280;25687;49.976;8.240;2022-10-24T14:36:53;99653.09;;;19.63;86.32
804;BME280;25687;49.976;8.240;2022-10-24T14:39:21;99655.91;;;19.70;86.84
804;BME280;25687;49.976;8.240;2022-10-24T14:41:51;99654.94;;;19.44;86.78
804;BME280;25687;49.976;8.240;2022-10-24T14:44:18;99661.75;;;19.63;86.77
804;BME280;25687;49.976;8.240;2022-10-24T14:46:59;99661.56;;;19.83;83.68
804;BME280;25687;49.976;8.240;2022-10-24T14:51:53;99670.34;;;19.82;84.50
804;BME280;25687;49.976;8.240;2022-10-24T14:54:22;99674.31;;;19.86;83.73
804;BME280;25687;49.976;8.240;2022-10-24T14:56:49;99672.75;;;19.75;86.73
804;BME280;25687;49.976;8.240;2022-10-24T14:59:26;99668.94;;;19.43;89.57
804;BME280;25687;49.976;8.240;2022-10-24T15:01:58;99674.53;;;19.48;90.29
804;BME280;25687;49.976;8.240;2022-10-24T15:04:39;99681.94;;;19.35;92.36
804;BME280;25687;49.976;8.240;2022-10-24T15:07:37;99680.66;;;19.21;91.54
804;BME280;25687;49.976;8.240;2022-10-24T15:12:46;99682.16;;;19.06;94.35
804;BME280;25687;49.976;8.240;2022-10-24T15:15:43;99690.69;;;19.08;94.99
804;BME280;25687;49.976;8.240;2022-10-24T15:18:25;99686.53;;;18.87;96.59
804;BME280;25687;49.976;8.240;2022-10-24T15:21:05;99693.19;;;18.71;93.54
804;BME280;25687;49.976;8.240;2022-10-24T15:23:35;99687.13;;;18.81;93.25